createdAt,value
2022-09-22T00:00:59.350Z,0.00
2022-09-22T00:01:59.341Z,0.00
2022-09-22T00:02:59.240Z,0.00
2022-09-22T00:03:59.221Z,0.00
2022-09-22T00:04:59.239Z,0.00
2022-09-22T00:05:59.207Z,0.00
2022-09-22T00:06:59.197Z,0.00
2022-09-22T00:07:59.213Z,0.00
2022-09-22T00:08:59.220Z,0.00
2022-09-22T00:09:59.166Z,0.00
2022-09-22T00:10:59.167Z,0.00
2022-09-22T00:11:59.165Z,0.00
2022-09-22T00:12:59.128Z,0.00
2022-09-22T00:13:59.133Z,0.00
2022-09-22T00:14:59.128Z,0.00
2022-09-22T00:15:59.182Z,0.00
2022-09-22T00:16:59.105Z,0.00
2022-09-22T00:17:59.074Z,0.00
2022-09-22T00:18:59.103Z,0.00
2022-09-22T00:19:59.075Z,0.00
2022-09-22T00:20:59.040Z,0.00
2022-09-22T00:21:59.044Z,0.00
2022-09-22T00:22:59.019Z,0.00
2022-09-22T00:23:59.022Z,0.00
2022-09-22T00:24:59.011Z,0.00
2022-09-22T00:25:58.987Z,0.00
2022-09-22T00:26:58.983Z,0.00
2022-09-22T00:27:58.973Z,0.00
2022-09-22T00:28:58.956Z,0.00
2022-09-22T00:29:58.955Z,0.00
2022-09-22T00:30:58.931Z,0.00
2022-09-22T00:32:01.300Z,0.00
2022-09-22T00:32:59.928Z,0.00
2022-09-22T00:33:58.898Z,0.00
2022-09-22T00:34:58.939Z,0.00
2022-09-22T00:35:58.877Z,0.00
2022-09-22T00:36:58.871Z,0.00
2022-09-22T00:37:58.863Z,0.00
2022-09-22T00:38:58.947Z,0.00
2022-09-22T00:39:58.851Z,0.00
2022-09-22T00:40:58.836Z,0.00
2022-09-22T00:41:58.815Z,0.00
2022-09-22T00:42:58.820Z,0.00
2022-09-22T00:43:58.810Z,0.00
2022-09-22T00:44:58.795Z,0.00
2022-09-22T00:45:58.779Z,0.00
2022-09-22T00:46:58.837Z,0.00
2022-09-22T00:47:58.773Z,0.00
2022-09-22T00:48:58.758Z,0.00
2022-09-22T00:49:58.739Z,0.00
2022-09-22T00:50:58.730Z,0.00
2022-09-22T00:51:58.750Z,0.00
2022-09-22T00:52:58.712Z,0.00
2022-09-22T00:53:58.693Z,0.00
2022-09-22T00:54:58.690Z,0.00
2022-09-22T00:55:58.683Z,0.00
2022-09-22T00:56:58.658Z,0.00
2022-09-22T00:57:58.644Z,0.00
2022-09-22T00:58:58.630Z,0.00
2022-09-22T00:59:58.628Z,0.00
2022-09-22T01:00:58.802Z,0.00
2022-09-22T01:01:58.830Z,0.00
2022-09-22T01:02:58.587Z,0.00
2022-09-22T01:03:58.581Z,0.00
2022-09-22T01:04:58.588Z,0.00
2022-09-22T01:05:58.573Z,0.00
2022-09-22T01:06:58.547Z,0.00
2022-09-22T01:07:58.535Z,0.00
2022-09-22T01:08:58.524Z,0.00
2022-09-22T01:09:58.510Z,0.00
2022-09-22T01:10:58.523Z,0.00
2022-09-22T01:11:58.507Z,0.00
2022-09-22T01:12:58.485Z,0.00
2022-09-22T01:13:58.469Z,0.00
2022-09-22T01:14:58.468Z,0.00
2022-09-22T01:15:58.565Z,0.00
2022-09-22T01:16:58.437Z,0.00
2022-09-22T01:17:58.427Z,0.00
2022-09-22T01:18:58.437Z,0.00
2022-09-22T01:19:58.403Z,0.00
2022-09-22T01:20:58.408Z,0.00
2022-09-22T01:21:58.416Z,0.00
2022-09-22T01:22:58.392Z,0.00
2022-09-22T01:23:58.361Z,0.00
2022-09-22T01:24:58.350Z,0.00
2022-09-22T01:25:58.338Z,0.00
2022-09-22T01:26:58.339Z,0.00
2022-09-22T01:27:58.320Z,0.00
2022-09-22T01:28:58.321Z,0.00
2022-09-22T01:29:58.309Z,0.00
2022-09-22T01:30:58.399Z,0.00
2022-09-22T01:31:58.341Z,0.00
2022-09-22T01:32:58.263Z,0.00
2022-09-22T01:33:58.266Z,0.00
2022-09-22T01:34:58.240Z,0.00
2022-09-22T01:35:58.226Z,0.00
2022-09-22T01:36:58.260Z,0.00
2022-09-22T01:37:58.216Z,0.00
2022-09-22T01:38:58.202Z,0.00
2022-09-22T01:39:58.185Z,0.00
2022-09-22T01:40:58.204Z,0.00
2022-09-22T01:41:58.190Z,0.00
2022-09-22T01:42:58.176Z,0.00
2022-09-22T01:43:58.149Z,0.00
2022-09-22T01:44:58.132Z,0.00
2022-09-22T01:45:58.138Z,0.00
2022-09-22T01:46:58.161Z,0.00
2022-09-22T01:47:58.113Z,0.00
2022-09-22T01:48:58.088Z,0.00
2022-09-22T01:49:58.084Z,0.00
2022-09-22T01:50:58.072Z,0.00
2022-09-22T01:51:58.079Z,0.00
2022-09-22T01:52:58.064Z,0.00
2022-09-22T01:53:58.034Z,0.00
2022-09-22T01:54:58.035Z,0.00
2022-09-22T01:55:58.012Z,0.00
2022-09-22T01:56:58.019Z,0.00
2022-09-22T01:57:58.009Z,0.00
2022-09-22T01:58:58.031Z,0.00
2022-09-22T01:59:57.973Z,0.00
2022-09-22T02:00:57.959Z,0.00
2022-09-22T02:01:58.067Z,0.00
2022-09-22T02:02:58.034Z,0.00
2022-09-22T02:03:57.923Z,0.00
2022-09-22T02:04:57.931Z,0.00
2022-09-22T02:05:57.905Z,0.00
2022-09-22T02:06:57.922Z,0.00
2022-09-22T02:07:57.896Z,0.00
2022-09-22T02:08:57.897Z,0.00
2022-09-22T02:09:57.863Z,0.00
2022-09-22T02:10:57.883Z,0.00
2022-09-22T02:11:57.841Z,0.00
2022-09-22T02:12:57.856Z,0.00
2022-09-22T02:13:57.820Z,0.00
2022-09-22T02:14:57.842Z,0.00
2022-09-22T02:15:57.868Z,0.00
2022-09-22T02:16:57.827Z,0.00
2022-09-22T02:17:57.789Z,0.00
2022-09-22T02:19:10.193Z,0.00
2022-09-22T02:19:58.756Z,0.00
2022-09-22T02:20:57.743Z,0.00
2022-09-22T02:21:57.734Z,0.00
2022-09-22T02:22:57.774Z,0.00
2022-09-22T02:23:57.709Z,0.00
2022-09-22T02:24:57.718Z,0.00
2022-09-22T02:25:57.685Z,0.00
2022-09-22T02:26:57.683Z,0.00
2022-09-22T02:27:57.682Z,0.00
2022-09-22T02:28:57.670Z,0.00
2022-09-22T02:29:57.653Z,0.00
2022-09-22T02:31:17.926Z,0.00
2022-09-22T02:31:58.682Z,0.00
2022-09-22T02:32:57.631Z,0.00
2022-09-22T02:33:57.609Z,0.00
2022-09-22T02:34:57.606Z,0.00
2022-09-22T02:35:57.577Z,0.00
2022-09-22T02:36:57.586Z,0.00
2022-09-22T02:37:57.570Z,0.00
2022-09-22T02:38:57.552Z,0.00
2022-09-22T02:39:57.572Z,0.00
2022-09-22T02:40:57.563Z,0.00
2022-09-22T02:41:57.514Z,0.00
2022-09-22T02:42:57.530Z,0.00
2022-09-22T02:43:57.493Z,0.00
2022-09-22T02:44:57.529Z,0.00
2022-09-22T02:45:57.581Z,0.00
2022-09-22T02:46:57.460Z,0.00
2022-09-22T02:47:57.460Z,0.00
2022-09-22T02:48:57.465Z,0.00
2022-09-22T02:49:57.434Z,0.00
2022-09-22T02:50:57.412Z,0.00
2022-09-22T02:51:57.425Z,0.00
2022-09-22T02:52:57.422Z,0.00
2022-09-22T02:53:57.383Z,0.00
2022-09-22T02:54:57.416Z,0.00
2022-09-22T02:55:57.368Z,0.00
2022-09-22T02:56:57.371Z,0.00
2022-09-22T02:57:57.378Z,0.00
2022-09-22T02:58:58.573Z,0.00
2022-09-22T02:59:57.321Z,0.00
2022-09-22T03:00:57.307Z,0.00
2022-09-22T03:01:57.339Z,0.00
2022-09-22T03:02:57.303Z,0.00
2022-09-22T03:03:57.284Z,0.00
2022-09-22T03:04:57.327Z,0.00
2022-09-22T03:05:57.287Z,0.00
2022-09-22T03:06:57.242Z,0.00
2022-09-22T03:07:57.241Z,0.00
2022-09-22T03:08:57.256Z,0.00
2022-09-22T03:09:57.256Z,0.00
2022-09-22T03:10:57.203Z,0.00
2022-09-22T03:11:57.210Z,0.00
2022-09-22T03:13:15.401Z,0.00
2022-09-22T03:13:58.258Z,0.00
2022-09-22T03:14:57.188Z,0.00
2022-09-22T03:15:57.213Z,0.00
2022-09-22T03:16:57.173Z,0.00
2022-09-22T03:17:57.143Z,0.00
2022-09-22T03:18:57.103Z,0.00
2022-09-22T03:19:57.092Z,0.00
2022-09-22T03:20:57.096Z,0.00
2022-09-22T03:21:57.097Z,0.00
2022-09-22T03:22:57.090Z,0.00
2022-09-22T03:23:57.135Z,0.00
2022-09-22T03:24:57.062Z,0.00
2022-09-22T03:25:57.031Z,0.00
2022-09-22T03:26:57.057Z,0.00
2022-09-22T03:27:57.023Z,0.00
2022-09-22T03:28:57.018Z,0.00
2022-09-22T03:29:56.998Z,0.00
2022-09-22T03:30:57.047Z,0.00
2022-09-22T03:31:56.970Z,0.00
2022-09-22T03:32:57.001Z,0.00
2022-09-22T03:33:56.941Z,0.00
2022-09-22T03:34:56.933Z,0.00
2022-09-22T03:35:56.929Z,0.00
2022-09-22T03:36:56.916Z,0.00
2022-09-22T03:37:56.919Z,0.00
2022-09-22T03:38:56.929Z,0.00
2022-09-22T03:39:56.873Z,0.00
2022-09-22T03:40:56.867Z,0.00
2022-09-22T03:41:56.854Z,0.00
2022-09-22T03:42:56.867Z,0.00
2022-09-22T03:43:56.840Z,0.00
2022-09-22T03:44:56.842Z,0.00
2022-09-22T03:45:56.844Z,0.00
2022-09-22T03:46:56.808Z,0.00
2022-09-22T03:47:56.826Z,0.00
2022-09-22T03:48:56.776Z,0.00
2022-09-22T03:49:56.776Z,0.00
2022-09-22T03:50:56.791Z,0.00
2022-09-22T03:51:56.739Z,0.00
2022-09-22T03:52:56.793Z,0.00
2022-09-22T03:53:56.734Z,0.00
2022-09-22T03:54:56.715Z,0.00
2022-09-22T03:55:56.740Z,0.00
2022-09-22T03:56:56.692Z,0.00
2022-09-22T03:57:56.723Z,0.00
2022-09-22T03:58:56.676Z,0.00
2022-09-22T03:59:56.660Z,0.00
2022-09-22T04:00:56.705Z,0.00
2022-09-22T04:01:58.411Z,0.00
2022-09-22T04:02:56.637Z,0.00
2022-09-22T04:03:56.646Z,0.00
2022-09-22T04:04:56.620Z,0.00
2022-09-22T04:05:56.592Z,0.00
2022-09-22T04:06:56.578Z,0.00
2022-09-22T04:07:56.580Z,0.00
2022-09-22T04:08:56.625Z,0.00
2022-09-22T04:09:56.557Z,0.00
2022-09-22T04:10:56.533Z,0.00
2022-09-22T04:11:56.563Z,0.00
2022-09-22T04:12:56.571Z,0.00
2022-09-22T04:13:56.505Z,0.00
2022-09-22T04:14:56.489Z,0.00
2022-09-22T04:15:56.486Z,0.00
2022-09-22T04:16:56.677Z,0.00
2022-09-22T04:17:56.489Z,0.00
2022-09-22T04:18:56.462Z,0.00
2022-09-22T04:19:56.443Z,0.00
2022-09-22T04:20:56.432Z,0.00
2022-09-22T04:21:57.420Z,0.00
2022-09-22T04:22:56.417Z,0.00
2022-09-22T04:23:56.398Z,0.00
2022-09-22T04:24:56.381Z,0.00
2022-09-22T04:25:56.375Z,0.00
2022-09-22T04:27:18.563Z,0.00
2022-09-22T04:27:57.408Z,0.00
2022-09-22T04:28:56.383Z,0.00
2022-09-22T04:29:56.346Z,0.00
2022-09-22T04:30:56.397Z,0.00
2022-09-22T04:31:56.338Z,0.00
2022-09-22T04:32:56.325Z,0.00
2022-09-22T04:33:56.345Z,0.00
2022-09-22T04:34:56.283Z,0.00
2022-09-22T04:35:56.268Z,0.00
2022-09-22T04:36:56.271Z,0.00
2022-09-22T04:37:56.259Z,4.00
2022-09-22T04:38:56.242Z,4.00
2022-09-22T04:39:56.287Z,0.00
2022-09-22T04:40:56.211Z,0.00
2022-09-22T04:41:56.219Z,4.00
2022-09-22T04:42:56.263Z,4.00
2022-09-22T04:43:56.211Z,0.00
2022-09-22T04:44:56.188Z,0.00
2022-09-22T04:45:56.226Z,4.00
2022-09-22T04:46:56.140Z,4.00
2022-09-22T04:47:56.155Z,4.00
2022-09-22T04:48:56.183Z,4.00
2022-09-22T04:49:56.111Z,4.00
2022-09-22T04:50:56.092Z,8.00
2022-09-22T04:51:56.094Z,4.00
2022-09-22T04:52:56.112Z,8.00
2022-09-22T04:53:56.100Z,8.00
2022-09-22T04:54:56.091Z,8.00
2022-09-22T04:55:56.058Z,8.00
2022-09-22T04:56:56.034Z,8.00
2022-09-22T04:57:56.060Z,8.00
2022-09-22T04:58:56.013Z,8.00
2022-09-22T04:59:56.012Z,12.00
2022-09-22T05:00:56.087Z,12.00
2022-09-22T05:01:56.013Z,12.00
2022-09-22T05:02:56.112Z,16.00
2022-09-22T05:03:55.970Z,12.00
2022-09-22T05:04:55.970Z,16.00
2022-09-22T05:05:55.942Z,12.00
2022-09-22T05:06:55.932Z,16.00
2022-09-22T05:07:55.928Z,16.00
2022-09-22T05:08:55.903Z,16.00
2022-09-22T05:09:55.912Z,20.00
2022-09-22T05:10:55.885Z,20.00
2022-09-22T05:12:02.954Z,20.00
2022-09-22T05:12:55.862Z,24.00
2022-09-22T05:13:55.852Z,24.00
2022-09-22T05:14:55.837Z,20.00
2022-09-22T05:15:55.827Z,24.00
2022-09-22T05:16:55.913Z,24.00
2022-09-22T05:17:55.820Z,28.00
2022-09-22T05:18:55.813Z,28.00
2022-09-22T05:19:55.787Z,28.00
2022-09-22T05:20:55.798Z,28.00
2022-09-22T05:21:55.762Z,28.00
2022-09-22T05:22:55.769Z,32.00
2022-09-22T05:23:55.745Z,32.00
2022-09-22T05:24:55.731Z,32.00
2022-09-22T05:25:55.734Z,32.00
2022-09-22T05:26:55.710Z,36.00
2022-09-22T05:27:55.724Z,32.00
2022-09-22T05:28:55.692Z,36.00
2022-09-22T05:29:55.682Z,36.00
2022-09-22T05:30:55.669Z,40.00
2022-09-22T05:31:55.738Z,36.00
2022-09-22T05:32:55.657Z,40.00
2022-09-22T05:33:55.638Z,40.00
2022-09-22T05:34:55.624Z,40.00
2022-09-22T05:35:55.618Z,40.00
2022-09-22T05:36:55.621Z,44.00
2022-09-22T05:37:55.603Z,40.00
2022-09-22T05:38:55.584Z,44.00
2022-09-22T05:39:55.575Z,44.00
2022-09-22T05:40:55.569Z,44.00
2022-09-22T05:41:55.555Z,44.00
2022-09-22T05:42:55.554Z,44.00
2022-09-22T05:43:55.529Z,48.00
2022-09-22T05:44:55.515Z,48.00
2022-09-22T05:45:55.607Z,48.00
2022-09-22T05:46:55.502Z,48.00
2022-09-22T05:47:55.502Z,48.00
2022-09-22T05:48:55.480Z,48.00
2022-09-22T05:49:55.470Z,52.00
2022-09-22T05:50:55.454Z,48.00
2022-09-22T05:51:55.452Z,52.00
2022-09-22T05:52:55.450Z,52.00
2022-09-22T05:53:55.426Z,52.00
2022-09-22T05:54:55.412Z,56.00
2022-09-22T05:55:55.395Z,56.00
2022-09-22T05:56:55.398Z,56.00
2022-09-22T05:57:55.382Z,56.00
2022-09-22T05:58:55.379Z,56.00
2022-09-22T05:59:55.351Z,60.00
2022-09-22T06:00:55.352Z,60.00
2022-09-22T06:01:59.515Z,60.00
2022-09-22T06:02:55.408Z,60.00
2022-09-22T06:03:55.312Z,60.00
2022-09-22T06:04:55.297Z,60.00
2022-09-22T06:05:55.291Z,64.00
2022-09-22T06:06:55.283Z,64.00
2022-09-22T06:07:55.265Z,64.00
2022-09-22T06:08:55.274Z,64.00
2022-09-22T06:09:55.292Z,68.00
2022-09-22T06:10:55.238Z,68.00
2022-09-22T06:11:55.235Z,68.00
2022-09-22T06:12:55.212Z,68.00
2022-09-22T06:13:55.203Z,72.00
2022-09-22T06:14:55.185Z,72.00
2022-09-22T06:15:55.200Z,72.00
2022-09-22T06:16:55.168Z,76.00
2022-09-22T06:17:55.167Z,76.00
2022-09-22T06:18:55.143Z,76.00
2022-09-22T06:19:55.177Z,80.00
2022-09-22T06:20:55.126Z,80.00
2022-09-22T06:21:55.135Z,84.00
2022-09-22T06:22:55.113Z,80.00
2022-09-22T06:23:55.168Z,84.00
2022-09-22T06:24:55.147Z,84.00
2022-09-22T06:25:55.071Z,88.00
2022-09-22T06:26:55.066Z,88.00
2022-09-22T06:27:55.052Z,88.00
2022-09-22T06:28:55.040Z,88.00
2022-09-22T06:29:55.027Z,92.00
2022-09-22T06:30:55.008Z,92.00
2022-09-22T06:31:55.093Z,92.00
2022-09-22T06:32:55.001Z,92.00
2022-09-22T06:33:54.985Z,96.00
2022-09-22T06:34:54.967Z,96.00
2022-09-22T06:35:54.959Z,96.00
2022-09-22T06:36:54.959Z,96.00
2022-09-22T06:37:54.951Z,104.00
2022-09-22T06:38:54.936Z,100.00
2022-09-22T06:39:54.916Z,104.00
2022-09-22T06:40:54.943Z,104.00
2022-09-22T06:41:54.889Z,104.00
2022-09-22T06:42:54.897Z,108.00
2022-09-22T06:43:54.871Z,104.00
2022-09-22T06:44:54.860Z,112.00
2022-09-22T06:45:54.861Z,112.00
2022-09-22T06:46:54.833Z,108.00
2022-09-22T06:47:54.835Z,112.00
2022-09-22T06:48:54.816Z,112.00
2022-09-22T06:49:54.803Z,112.00
2022-09-22T06:50:54.799Z,112.00
2022-09-22T06:51:54.780Z,116.00
2022-09-22T06:52:54.781Z,116.00
2022-09-22T06:53:54.760Z,116.00
2022-09-22T06:54:54.745Z,116.00
2022-09-22T06:55:54.732Z,116.00
2022-09-22T06:56:54.739Z,116.00
2022-09-22T06:57:54.720Z,116.00
2022-09-22T06:59:09.332Z,120.00
2022-09-22T06:59:55.690Z,116.00
2022-09-22T07:00:54.863Z,120.00
2022-09-22T07:01:54.781Z,120.00
2022-09-22T07:02:54.673Z,120.00
2022-09-22T07:03:54.650Z,124.00
2022-09-22T07:04:54.685Z,124.00
2022-09-22T07:05:54.633Z,120.00
2022-09-22T07:06:54.610Z,124.00
2022-09-22T07:07:55.623Z,124.00
2022-09-22T07:08:54.587Z,124.00
2022-09-22T07:09:54.580Z,124.00
2022-09-22T07:10:54.568Z,128.00
2022-09-22T07:11:54.560Z,128.00
2022-09-22T07:12:54.580Z,128.00
2022-09-22T07:13:54.536Z,128.00
2022-09-22T07:14:54.526Z,132.00
2022-09-22T07:15:54.550Z,128.00
2022-09-22T07:16:54.498Z,128.00
2022-09-22T07:17:54.509Z,128.00
2022-09-22T07:18:54.480Z,132.00
2022-09-22T07:19:54.468Z,132.00
2022-09-22T07:20:54.458Z,132.00
2022-09-22T07:21:54.445Z,132.00
2022-09-22T07:22:54.445Z,132.00
2022-09-22T07:23:54.461Z,132.00
2022-09-22T07:24:54.415Z,136.00
2022-09-22T07:25:54.404Z,136.00
2022-09-22T07:26:54.395Z,136.00
2022-09-22T07:27:54.399Z,140.00
2022-09-22T07:28:54.391Z,136.00
2022-09-22T07:29:54.397Z,140.00
2022-09-22T07:30:54.350Z,140.00
2022-09-22T07:31:54.436Z,144.00
2022-09-22T07:32:54.328Z,144.00
2022-09-22T07:33:54.320Z,144.00
2022-09-22T07:34:54.307Z,148.00
2022-09-22T07:35:54.316Z,152.00
2022-09-22T07:36:54.300Z,148.00
2022-09-22T07:37:54.274Z,148.00
2022-09-22T07:38:54.265Z,152.00
2022-09-22T07:39:54.259Z,144.00
2022-09-22T07:40:54.247Z,148.00
2022-09-22T07:41:54.232Z,152.00
2022-09-22T07:42:54.231Z,152.00
2022-09-22T07:43:54.210Z,156.00
2022-09-22T07:44:54.227Z,164.00
2022-09-22T07:45:54.204Z,172.00
2022-09-22T07:46:54.275Z,172.00
2022-09-22T07:47:54.196Z,176.00
2022-09-22T07:48:54.154Z,184.00
2022-09-22T07:49:54.271Z,188.00
2022-09-22T07:50:54.135Z,188.00
2022-09-22T07:51:54.155Z,188.00
2022-09-22T07:52:54.121Z,192.00
2022-09-22T07:53:54.110Z,196.00
2022-09-22T07:54:54.089Z,188.00
2022-09-22T07:55:54.083Z,172.00
2022-09-22T07:56:54.072Z,148.00
2022-09-22T07:57:54.083Z,132.00
2022-09-22T07:58:54.052Z,128.00
2022-09-22T07:59:54.037Z,128.00
2022-09-22T08:00:54.173Z,128.00
2022-09-22T08:01:54.077Z,128.00
2022-09-22T08:02:54.013Z,132.00
2022-09-22T08:03:53.999Z,128.00
2022-09-22T08:04:53.985Z,128.00
2022-09-22T08:05:54.787Z,124.00
2022-09-22T08:06:53.962Z,128.00
2022-09-22T08:07:53.960Z,128.00
2022-09-22T08:08:53.937Z,128.00
2022-09-22T08:09:53.942Z,128.00
2022-09-22T08:10:53.916Z,124.00
2022-09-22T08:11:53.928Z,128.00
2022-09-22T08:12:53.921Z,128.00
2022-09-22T08:13:53.890Z,128.00
2022-09-22T08:14:53.875Z,132.00
2022-09-22T08:15:53.922Z,132.00
2022-09-22T08:16:54.199Z,132.00
2022-09-22T08:17:53.848Z,128.00
2022-09-22T08:18:53.827Z,132.00
2022-09-22T08:19:53.813Z,136.00
2022-09-22T08:20:53.808Z,136.00
2022-09-22T08:21:53.796Z,136.00
2022-09-22T08:22:53.831Z,140.00
2022-09-22T08:23:53.782Z,140.00
2022-09-22T08:24:53.767Z,136.00
2022-09-22T08:25:53.757Z,124.00
2022-09-22T08:26:53.745Z,136.00
2022-09-22T08:27:53.725Z,140.00
2022-09-22T08:28:53.732Z,140.00
2022-09-22T08:29:53.709Z,136.00
2022-09-22T08:30:53.701Z,140.00
2022-09-22T08:31:53.740Z,144.00
2022-09-22T08:32:53.695Z,200.00
2022-09-22T08:33:53.685Z,180.00
2022-09-22T08:34:53.653Z,148.00
2022-09-22T08:35:53.649Z,180.00
2022-09-22T08:36:53.636Z,208.00
2022-09-22T08:37:53.624Z,148.00
2022-09-22T08:38:53.620Z,264.00
2022-09-22T08:39:53.601Z,176.00
2022-09-22T08:40:53.648Z,188.00
2022-09-22T08:41:53.582Z,184.00
2022-09-22T08:42:53.567Z,168.00
2022-09-22T08:43:53.572Z,192.00
2022-09-22T08:44:53.549Z,176.00
2022-09-22T08:45:53.532Z,164.00
2022-09-22T08:46:53.588Z,168.00
2022-09-22T08:47:53.517Z,184.00
2022-09-22T08:48:53.531Z,256.00
2022-09-22T08:49:53.486Z,400.00
2022-09-22T08:50:53.490Z,460.00
2022-09-22T08:51:53.468Z,380.00
2022-09-22T08:52:53.472Z,404.00
2022-09-22T08:53:53.458Z,264.00
2022-09-22T08:54:53.444Z,192.00
2022-09-22T08:55:53.428Z,180.00
2022-09-22T08:56:53.421Z,172.00
2022-09-22T08:57:53.402Z,164.00
2022-09-22T08:58:53.404Z,180.00
2022-09-22T08:59:53.379Z,164.00
2022-09-22T09:00:53.379Z,160.00
2022-09-22T09:01:53.438Z,160.00
2022-09-22T09:02:53.414Z,160.00
2022-09-22T09:03:53.354Z,164.00
2022-09-22T09:04:53.352Z,160.00
2022-09-22T09:05:53.320Z,164.00
2022-09-22T09:06:53.330Z,164.00
2022-09-22T09:07:53.294Z,168.00
2022-09-22T09:08:53.293Z,180.00
2022-09-22T09:09:53.284Z,176.00
2022-09-22T09:10:53.270Z,172.00
2022-09-22T09:11:53.254Z,164.00
2022-09-22T09:12:53.250Z,164.00
2022-09-22T09:13:53.243Z,408.00
2022-09-22T09:14:53.227Z,616.00
2022-09-22T09:15:53.223Z,180.00
2022-09-22T09:16:53.198Z,184.00
2022-09-22T09:17:53.203Z,172.00
2022-09-22T09:18:53.195Z,188.00
2022-09-22T09:19:53.176Z,168.00
2022-09-22T09:20:53.189Z,168.00
2022-09-22T09:21:53.149Z,164.00
2022-09-22T09:22:53.147Z,172.00
2022-09-22T09:25:54.108Z,172.00
2022-09-22T09:26:53.098Z,172.00
2022-09-22T09:27:53.091Z,172.00
2022-09-22T09:28:53.078Z,172.00
2022-09-22T09:29:53.073Z,196.00
2022-09-22T09:30:53.073Z,264.00
2022-09-22T09:31:53.039Z,272.00
2022-09-22T09:32:53.030Z,296.00
2022-09-22T09:33:53.026Z,364.00
2022-09-22T09:34:55.839Z,480.00
2022-09-22T09:35:53.003Z,552.00
2022-09-22T09:36:53.002Z,568.00
2022-09-22T09:37:52.970Z,668.00
2022-09-22T09:38:52.964Z,512.00
2022-09-22T09:39:52.960Z,396.00
2022-09-22T09:40:52.939Z,344.00
2022-09-22T09:41:52.930Z,340.00
2022-09-22T09:42:52.924Z,248.00
2022-09-22T09:43:53.375Z,192.00
2022-09-22T09:44:52.920Z,184.00
2022-09-22T09:45:52.888Z,180.00
2022-09-22T09:46:52.876Z,184.00
2022-09-22T09:47:52.891Z,180.00
2022-09-22T09:48:52.849Z,208.00
2022-09-22T09:49:53.077Z,256.00
2022-09-22T09:50:52.840Z,276.00
2022-09-22T09:51:52.828Z,372.00
2022-09-22T09:52:52.844Z,408.00
2022-09-22T09:53:52.801Z,356.00
2022-09-22T09:54:52.801Z,212.00
2022-09-22T09:55:52.781Z,220.00
2022-09-22T09:56:52.769Z,212.00
2022-09-22T09:57:52.764Z,188.00
2022-09-22T09:58:52.740Z,188.00
2022-09-22T09:59:52.738Z,188.00
2022-09-22T10:00:52.726Z,184.00
2022-09-22T10:01:52.751Z,184.00
2022-09-22T10:02:52.704Z,180.00
2022-09-22T10:03:52.726Z,184.00
2022-09-22T10:04:52.713Z,184.00
2022-09-22T10:05:52.669Z,184.00
2022-09-22T10:06:52.657Z,180.00
2022-09-22T10:07:52.646Z,180.00
2022-09-22T10:08:52.655Z,184.00
2022-09-22T10:09:52.633Z,200.00
2022-09-22T10:10:52.617Z,236.00
2022-09-22T10:11:52.604Z,192.00
2022-09-22T10:12:52.593Z,184.00
2022-09-22T10:13:52.587Z,188.00
2022-09-22T10:14:52.581Z,188.00
2022-09-22T10:15:52.619Z,196.00
2022-09-22T10:16:52.547Z,196.00
2022-09-22T10:17:52.537Z,196.00
2022-09-22T10:18:52.526Z,196.00
2022-09-22T10:19:52.533Z,196.00
2022-09-22T10:20:52.510Z,200.00
2022-09-22T10:21:52.496Z,200.00
2022-09-22T10:22:52.485Z,200.00
2022-09-22T10:23:52.472Z,204.00
2022-09-22T10:24:52.491Z,200.00
2022-09-22T10:25:52.450Z,200.00
2022-09-22T10:26:52.476Z,204.00
2022-09-22T10:27:52.433Z,208.00
2022-09-22T10:28:52.420Z,200.00
2022-09-22T10:29:52.415Z,196.00
2022-09-22T10:30:52.457Z,204.00
2022-09-22T10:31:52.388Z,208.00
2022-09-22T10:32:52.384Z,208.00
2022-09-22T10:33:52.363Z,208.00
2022-09-22T10:34:52.357Z,212.00
2022-09-22T10:35:52.348Z,216.00
2022-09-22T10:36:52.330Z,224.00
2022-09-22T10:37:52.319Z,240.00
2022-09-22T10:38:54.522Z,244.00
2022-09-22T10:39:53.307Z,272.00
2022-09-22T10:40:52.490Z,324.00
2022-09-22T10:41:52.273Z,420.00
2022-09-22T10:42:52.267Z,548.00
2022-09-22T10:43:52.272Z,480.00
2022-09-22T10:44:52.242Z,624.00
2022-09-22T10:45:52.269Z,756.00
2022-09-22T10:46:52.224Z,800.00
2022-09-22T10:47:52.213Z,840.00
2022-09-22T10:48:52.228Z,1484.00
2022-09-22T10:49:52.200Z,1432.00
2022-09-22T10:50:52.192Z,952.00
2022-09-22T10:51:52.161Z,1132.00
2022-09-22T10:52:52.169Z,7032.00
2022-09-22T10:53:52.146Z,10064.00
2022-09-22T10:54:52.153Z,5232.00
2022-09-22T10:55:52.123Z,11800.00
2022-09-22T10:56:52.129Z,17088.00
2022-09-22T10:57:52.101Z,13988.00
2022-09-22T10:58:52.089Z,6392.00
2022-09-22T10:59:52.091Z,900.00
2022-09-22T11:00:52.072Z,828.00
2022-09-22T11:01:52.133Z,832.00
2022-09-22T11:02:52.050Z,3040.00
2022-09-22T11:03:52.039Z,2276.00
2022-09-22T11:04:52.083Z,600.00
2022-09-22T11:05:52.023Z,568.00
2022-09-22T11:06:52.003Z,476.00
2022-09-22T11:07:51.993Z,496.00
2022-09-22T11:08:51.985Z,564.00
2022-09-22T11:09:51.979Z,636.00
2022-09-22T11:10:51.959Z,420.00
2022-09-22T11:11:51.949Z,492.00
2022-09-22T11:12:51.960Z,532.00
2022-09-22T11:13:51.928Z,600.00
2022-09-22T11:14:51.927Z,412.00
2022-09-22T11:15:52.087Z,368.00
2022-09-22T11:16:51.901Z,320.00
2022-09-22T11:17:51.889Z,516.00
2022-09-22T11:18:51.871Z,308.00
2022-09-22T11:19:51.872Z,320.00
2022-09-22T11:20:51.855Z,332.00
2022-09-22T11:21:51.842Z,312.00
2022-09-22T11:22:51.833Z,344.00
2022-09-22T11:23:51.820Z,300.00
2022-09-22T11:24:51.817Z,316.00
2022-09-22T11:25:51.797Z,312.00
2022-09-22T11:26:51.787Z,344.00
2022-09-22T11:27:51.779Z,328.00
2022-09-22T11:28:56.906Z,400.00
2022-09-22T11:29:52.767Z,412.00
2022-09-22T11:30:51.821Z,396.00
2022-09-22T11:31:51.727Z,400.00
2022-09-22T11:32:51.723Z,400.00
2022-09-22T11:33:51.715Z,372.00
2022-09-22T11:34:51.717Z,448.00
2022-09-22T11:35:51.692Z,452.00
2022-09-22T11:36:51.990Z,444.00
2022-09-22T11:37:51.672Z,400.00
2022-09-22T11:38:51.656Z,420.00
2022-09-22T11:39:51.655Z,424.00
2022-09-22T11:40:51.776Z,432.00
2022-09-22T11:41:51.632Z,444.00
2022-09-22T11:42:51.616Z,428.00
2022-09-22T11:43:53.498Z,408.00
2022-09-22T11:44:51.729Z,420.00
2022-09-22T11:45:51.650Z,444.00
2022-09-22T11:46:51.578Z,456.00
2022-09-22T11:47:51.561Z,464.00
2022-09-22T11:48:51.551Z,480.00
2022-09-22T11:49:51.552Z,496.00
2022-09-22T11:50:51.524Z,492.00
2022-09-22T11:51:51.517Z,492.00
2022-09-22T11:52:51.508Z,496.00
2022-09-22T11:53:51.493Z,476.00
2022-09-22T11:54:51.494Z,484.00
2022-09-22T11:55:51.471Z,504.00
2022-09-22T11:56:51.470Z,520.00
2022-09-22T11:57:51.452Z,516.00
2022-09-22T11:58:51.450Z,512.00
2022-09-22T11:59:51.444Z,552.00
2022-09-22T12:00:51.460Z,572.00
2022-09-22T12:01:51.407Z,700.00
2022-09-22T12:02:51.509Z,672.00
2022-09-22T12:03:51.385Z,360.00
2022-09-22T12:04:51.386Z,368.00
2022-09-22T12:05:51.362Z,632.00
2022-09-22T12:06:51.358Z,596.00
2022-09-22T12:07:51.341Z,560.00
2022-09-22T12:08:51.384Z,512.00
2022-09-22T12:09:51.329Z,484.00
2022-09-22T12:10:51.311Z,468.00
2022-09-22T12:11:51.302Z,476.00
2022-09-22T12:12:51.290Z,1068.00
2022-09-22T12:13:51.282Z,656.00
2022-09-22T12:14:51.280Z,544.00
2022-09-22T12:15:51.383Z,620.00
2022-09-22T12:16:51.266Z,740.00
2022-09-22T12:17:51.235Z,936.00
2022-09-22T12:18:51.225Z,2064.00
2022-09-22T12:19:51.273Z,4604.00
2022-09-22T12:20:51.208Z,8924.00
2022-09-22T12:21:51.192Z,9164.00
2022-09-22T12:22:51.181Z,3200.00
2022-09-22T12:23:51.535Z,9564.00
2022-09-22T12:24:51.172Z,23712.00
2022-09-22T12:25:51.148Z,26400.00
2022-09-22T12:26:51.144Z,29184.00
2022-09-22T12:27:51.126Z,28064.00
2022-09-22T12:28:51.117Z,24448.00
2022-09-22T12:29:51.119Z,18272.00
2022-09-22T12:30:51.121Z,23136.00
2022-09-22T12:31:51.085Z,15264.00
2022-09-22T12:32:51.095Z,8304.00
2022-09-22T12:33:51.072Z,8856.00
2022-09-22T12:34:51.062Z,15884.00
2022-09-22T12:35:51.044Z,13808.00
2022-09-22T12:36:51.032Z,10940.00
2022-09-22T12:37:51.027Z,8564.00
2022-09-22T12:38:51.012Z,7944.00
2022-09-22T12:39:51.012Z,3416.00
2022-09-22T12:40:50.990Z,8196.00
2022-09-22T12:41:50.975Z,10148.00
2022-09-22T12:42:50.966Z,4448.00
2022-09-22T12:43:50.955Z,2504.00
2022-09-22T12:44:50.958Z,7784.00
2022-09-22T12:45:50.962Z,9280.00
2022-09-22T12:46:50.932Z,8448.00
2022-09-22T12:47:50.912Z,13600.00
2022-09-22T12:48:50.926Z,11884.00
2022-09-22T12:49:50.908Z,16256.00
2022-09-22T12:50:50.883Z,21408.00